createdAt,value
2018-03-02T00:01:09.886Z,99077.72
2018-03-02T00:03:35.850Z,99071.45
2018-03-02T00:06:01.826Z,99070.56
2018-03-02T00:08:27.742Z,99063.69
2018-03-02T00:10:53.679Z,99060.25
2018-03-02T00:13:19.608Z,99059.62
2018-03-02T00:15:45.576Z,99058.02
2018-03-02T00:18:11.522Z,99051.86
2018-03-02T00:20:37.459Z,99047.84
2018-03-02T00:23:03.409Z,99037.77
2018-03-02T00:25:29.360Z,99032.84
2018-03-02T00:27:55.285Z,99033.73
2018-03-02T00:30:21.222Z,99025.56
2018-03-02T00:32:47.161Z,99025.13
2018-03-02T00:35:13.113Z,99020.73
2018-03-02T00:37:39.062Z,99012.37
2018-03-02T00:40:05.022Z,99016.88
2018-03-02T00:42:30.985Z,99012.25
2018-03-02T00:44:56.920Z,99010.33
2018-03-02T00:47:22.884Z,99006.57
2018-03-02T00:49:48.822Z,99003.47
2018-03-02T00:52:14.762Z,99004.28
2018-03-02T00:54:40.690Z,99003.09
2018-03-02T00:57:06.651Z,98998.57
2018-03-02T00:59:32.614Z,98995.00
2018-03-02T01:01:58.618Z,98992.72
2018-03-02T01:04:24.510Z,98988.06
2018-03-02T01:06:50.440Z,98984.83
2018-03-02T01:09:16.729Z,98975.34
2018-03-02T01:11:42.758Z,98976.17
2018-03-02T01:14:08.704Z,98972.95
2018-03-02T01:16:34.654Z,98967.67
2018-03-02T01:19:00.611Z,98963.70
2018-03-02T01:21:26.558Z,98939.45
2018-03-02T01:23:52.515Z,98953.74
2018-03-02T01:26:18.441Z,98954.60
2018-03-02T01:28:44.378Z,98952.14
2018-03-02T01:31:10.319Z,98949.58
2018-03-02T01:33:36.262Z,98949.87
2018-03-02T01:36:02.208Z,98944.34
2018-03-02T01:38:28.139Z,98944.47
2018-03-02T01:40:54.089Z,98941.89
2018-03-02T01:43:20.025Z,98935.72
2018-03-02T01:45:45.975Z,98932.86
2018-03-02T01:48:11.922Z,98925.27
2018-03-02T01:50:37.864Z,98927.06
2018-03-02T01:53:03.783Z,98920.94
2018-03-02T01:55:29.713Z,98910.98
2018-03-02T01:57:55.657Z,98905.55
2018-03-02T02:00:21.594Z,98905.59
2018-03-02T02:02:47.530Z,98897.13
2018-03-02T02:05:13.474Z,98901.59
2018-03-02T02:07:39.422Z,98892.48
2018-03-02T02:10:05.370Z,98897.30
2018-03-02T02:12:31.291Z,98891.19
2018-03-02T02:14:57.218Z,98896.14
2018-03-02T02:17:23.162Z,98894.57
2018-03-02T02:19:49.100Z,98892.14
2018-03-02T02:22:15.065Z,98897.55
2018-03-02T02:24:41.017Z,98887.56
2018-03-02T02:27:06.949Z,98887.17
2018-03-02T02:29:32.874Z,98877.31
2018-03-02T02:31:58.827Z,98867.24
2018-03-02T02:34:24.765Z,98874.86
2018-03-02T02:36:50.708Z,98875.83
2018-03-02T02:39:16.626Z,98874.00
2018-03-02T02:41:42.551Z,98878.33
2018-03-02T02:44:08.475Z,98881.06
2018-03-02T02:46:34.426Z,98873.47
2018-03-02T02:49:00.363Z,98879.37
2018-03-02T02:51:28.905Z,98875.03
2018-03-02T02:53:55.109Z,98873.86
2018-03-02T02:56:21.088Z,98875.34
2018-03-02T02:58:47.031Z,98874.16
2018-03-02T03:01:13.054Z,98878.95
2018-03-02T03:03:38.968Z,98863.22
2018-03-02T03:06:04.926Z,98873.40
2018-03-02T03:08:30.892Z,98874.13
2018-03-02T03:10:56.855Z,98873.61
2018-03-02T03:13:22.811Z,98865.69
2018-03-02T03:15:48.758Z,98866.73
2018-03-02T03:18:14.711Z,98866.72
2018-03-02T03:20:40.642Z,98864.77
2018-03-02T03:23:06.585Z,98870.48
2018-03-02T03:25:32.541Z,98867.22
2018-03-02T03:27:58.498Z,98865.95
2018-03-02T03:30:24.436Z,98862.12
2018-03-02T03:32:50.385Z,98861.32
2018-03-02T03:35:16.316Z,98866.85
2018-03-02T03:37:42.272Z,98865.95
2018-03-02T03:40:08.219Z,98860.48
2018-03-02T03:42:34.176Z,98861.12
2018-03-02T03:45:00.118Z,98847.69
2018-03-02T03:47:26.241Z,98854.56
2018-03-02T03:49:52.183Z,98850.71
2018-03-02T03:52:18.124Z,98846.32
2018-03-02T03:54:44.071Z,98847.81
2018-03-02T03:57:10.072Z,98837.36
2018-03-02T03:59:36.029Z,98843.28
2018-03-02T04:02:01.994Z,98837.55
2018-03-02T04:04:27.949Z,98828.86
2018-03-02T04:06:53.925Z,98826.61
2018-03-02T04:09:19.881Z,98826.22
2018-03-02T04:11:45.849Z,98822.99
2018-03-02T04:14:11.781Z,98828.09
2018-03-02T04:16:37.723Z,98808.88
2018-03-02T04:19:03.713Z,98816.94
2018-03-02T04:21:29.650Z,98811.09
2018-03-02T04:23:55.609Z,98805.28
2018-03-02T04:26:21.662Z,98809.62
2018-03-02T04:28:47.650Z,98814.34
2018-03-02T04:31:13.606Z,98810.79
2018-03-02T04:33:39.557Z,98809.55
2018-03-02T04:36:05.529Z,98806.67
2018-03-02T04:38:31.469Z,98799.05
2018-03-02T04:40:57.433Z,98797.48
2018-03-02T04:43:23.383Z,98789.55
2018-03-02T04:45:49.338Z,98788.50
2018-03-02T04:48:15.293Z,98788.30
2018-03-02T04:50:41.233Z,98793.31
2018-03-02T04:53:07.196Z,98782.19
2018-03-02T04:55:33.210Z,98772.42
2018-03-02T04:57:59.164Z,98774.65
2018-03-02T05:00:25.110Z,98774.98
2018-03-02T05:02:51.126Z,98776.05
2018-03-02T05:05:17.065Z,98768.30
2018-03-02T05:07:43.047Z,98766.45
2018-03-02T05:10:08.992Z,98759.92
2018-03-02T05:12:34.940Z,98749.87
2018-03-02T05:15:00.910Z,98753.39
2018-03-02T05:17:26.857Z,98747.50
2018-03-02T05:19:52.787Z,98747.83
2018-03-02T05:22:18.758Z,98749.91
2018-03-02T05:24:44.692Z,98741.30
2018-03-02T05:27:10.646Z,98742.39
2018-03-02T05:29:36.568Z,98744.47
2018-03-02T05:32:02.506Z,98739.63
2018-03-02T05:34:28.469Z,98744.63
2018-03-02T05:36:54.431Z,98746.67
2018-03-02T05:39:20.368Z,98742.73
2018-03-02T05:41:46.356Z,98743.80
2018-03-02T05:44:12.305Z,98744.33
2018-03-02T05:46:38.294Z,98750.80
2018-03-02T05:49:04.245Z,98746.42
2018-03-02T05:51:30.192Z,98746.59
2018-03-02T05:53:56.154Z,98747.27
2018-03-02T05:56:22.192Z,98746.77
2018-03-02T05:58:48.178Z,98743.16
2018-03-02T06:01:14.157Z,98742.02
2018-03-02T06:03:40.171Z,98736.59
2018-03-02T06:06:06.111Z,98734.94
2018-03-02T06:08:32.104Z,98729.55
2018-03-02T06:10:58.091Z,98731.13
2018-03-02T06:13:24.048Z,98711.33
2018-03-02T06:15:49.986Z,98731.25
2018-03-02T06:18:15.952Z,98730.94
2018-03-02T06:20:42.403Z,98726.23
2018-03-02T06:23:08.352Z,98721.47
2018-03-02T06:25:34.291Z,98724.70
2018-03-02T06:28:00.267Z,98719.50
2018-03-02T06:30:26.191Z,98715.60
2018-03-02T06:32:52.138Z,98717.06
2018-03-02T06:35:18.064Z,98716.12
2018-03-02T06:37:44.017Z,98716.88
2018-03-02T06:40:09.964Z,98710.03
2018-03-02T06:42:35.902Z,98713.60
2018-03-02T06:45:01.849Z,98708.28
2018-03-02T06:47:27.814Z,98718.02
2018-03-02T06:49:53.743Z,98706.73
2018-03-02T06:52:19.705Z,98703.30
2018-03-02T06:54:45.660Z,98710.61
2018-03-02T06:57:11.604Z,98709.08
2018-03-02T06:59:37.542Z,98703.34
2018-03-02T07:02:03.486Z,98707.18
2018-03-02T07:04:29.448Z,98705.06
2018-03-02T07:06:55.446Z,98704.73
2018-03-02T07:09:21.370Z,98709.34
2018-03-02T07:11:47.317Z,98704.70
2018-03-02T07:14:13.249Z,98701.31
2018-03-02T07:16:39.192Z,98699.80
2018-03-02T07:19:05.142Z,98705.28
2018-03-02T07:21:31.131Z,98698.14
2018-03-02T07:23:57.046Z,98699.08
2018-03-02T07:26:22.990Z,98698.74
2018-03-02T07:28:48.933Z,98685.73
2018-03-02T07:31:14.913Z,98689.83
2018-03-02T07:33:40.854Z,98687.95
2018-03-02T07:36:06.784Z,98679.36
2018-03-02T07:38:32.728Z,98677.05
2018-03-02T07:40:58.658Z,98664.70
2018-03-02T07:43:24.604Z,98665.09
2018-03-02T07:45:50.538Z,98662.65
2018-03-02T07:48:16.497Z,98652.02
2018-03-02T07:50:42.473Z,98643.77
2018-03-02T07:53:08.432Z,98645.59
2018-03-02T07:55:34.401Z,98645.09
2018-03-02T07:58:00.383Z,98644.73
2018-03-02T08:00:26.322Z,98646.30
2018-03-02T08:02:52.285Z,98643.39
2018-03-02T08:05:18.207Z,98637.17
2018-03-02T08:07:44.219Z,98632.19
2018-03-02T08:10:10.177Z,98630.55
2018-03-02T08:12:36.128Z,98626.86
2018-03-02T08:15:02.067Z,98615.34
2018-03-02T08:17:28.045Z,98616.76
2018-03-02T08:19:53.979Z,98615.64
2018-03-02T08:22:19.917Z,98612.89
2018-03-02T08:24:45.860Z,98601.38
2018-03-02T08:27:11.817Z,98608.12
2018-03-02T08:29:37.761Z,98605.98
2018-03-02T08:32:03.724Z,98611.58
2018-03-02T08:34:29.658Z,98596.27
2018-03-02T08:36:55.610Z,98593.23
2018-03-02T08:39:21.594Z,98583.98
2018-03-02T08:41:47.515Z,98586.21
2018-03-02T08:44:13.474Z,98586.58
2018-03-02T08:46:39.418Z,98582.89
2018-03-02T08:49:05.351Z,98572.92
2018-03-02T08:51:31.285Z,98570.20
2018-03-02T08:53:57.241Z,98572.98
2018-03-02T08:56:23.185Z,98571.78
2018-03-02T08:58:49.146Z,98572.12
2018-03-02T09:01:15.097Z,98564.85
2018-03-02T09:03:41.041Z,98562.57
2018-03-02T09:06:06.985Z,98560.43
2018-03-02T09:08:32.919Z,98556.59
2018-03-02T09:10:58.855Z,98542.44
2018-03-02T09:13:24.817Z,98544.16
2018-03-02T09:15:50.783Z,98537.77
2018-03-02T09:18:16.720Z,98533.62
2018-03-02T09:20:42.675Z,98531.72
2018-03-02T09:23:08.684Z,98522.45
2018-03-02T09:25:34.635Z,98514.55
2018-03-02T09:28:00.581Z,98502.39
2018-03-02T09:30:26.523Z,98507.30
2018-03-02T09:32:52.496Z,98501.34
2018-03-02T09:35:18.427Z,98497.55
2018-03-02T09:37:44.381Z,98503.47
2018-03-02T09:40:10.310Z,98493.77
2018-03-02T09:42:36.257Z,98495.20
2018-03-02T09:45:02.217Z,98494.13
2018-03-02T09:47:28.269Z,98484.63
2018-03-02T09:49:54.207Z,98482.91
2018-03-02T09:52:20.177Z,98481.76
2018-03-02T09:54:46.229Z,98477.32
2018-03-02T09:57:12.199Z,98478.27
2018-03-02T09:59:38.134Z,98467.79
2018-03-02T10:02:04.079Z,98476.09
2018-03-02T10:04:30.043Z,98472.52
2018-03-02T10:06:56.029Z,98470.95
2018-03-02T10:09:21.970Z,98464.66
2018-03-02T10:11:47.948Z,98456.22
2018-03-02T10:14:13.915Z,98450.03
2018-03-02T10:16:39.869Z,98430.52
2018-03-02T10:19:05.802Z,98450.24
2018-03-02T10:21:31.791Z,98444.53
2018-03-02T10:23:57.762Z,98438.06
2018-03-02T10:26:23.709Z,98443.58
2018-03-02T10:28:49.647Z,98441.38
2018-03-02T10:31:15.621Z,98445.07
2018-03-02T10:33:41.555Z,98436.17
2018-03-02T10:36:07.512Z,98444.72
2018-03-02T10:38:33.480Z,98439.57
2018-03-02T10:40:59.427Z,98437.70
2018-03-02T10:43:25.371Z,98436.36
2018-03-02T10:45:51.316Z,98434.95
2018-03-02T10:48:17.271Z,98430.45
2018-03-02T10:50:43.230Z,98431.47
2018-03-02T10:53:09.190Z,98424.09
2018-03-02T10:55:35.197Z,98421.84
2018-03-02T10:58:01.163Z,98414.08
2018-03-02T11:00:27.123Z,98413.47
2018-03-02T11:02:53.075Z,98404.95
2018-03-02T11:05:19.179Z,98409.80
2018-03-02T11:07:45.215Z,98399.80
2018-03-02T11:10:11.167Z,98398.16
2018-03-02T11:12:37.095Z,98396.98
2018-03-02T11:15:03.058Z,98387.06
2018-03-02T11:17:29.005Z,98386.56
2018-03-02T11:19:54.931Z,98384.19
2018-03-02T11:22:20.866Z,98380.16
2018-03-02T11:24:46.819Z,98378.73
2018-03-02T11:27:12.768Z,98379.82
2018-03-02T11:29:38.707Z,98374.19
2018-03-02T11:32:04.651Z,98375.75
2018-03-02T11:34:30.571Z,98377.95
2018-03-02T11:36:56.499Z,98370.72
2018-03-02T11:39:22.455Z,98362.56
2018-03-02T11:41:48.387Z,98358.02
2018-03-02T11:44:14.341Z,98350.80
2018-03-02T11:46:40.304Z,98346.14
2018-03-02T11:49:06.249Z,98353.09
2018-03-02T11:51:32.185Z,98346.64
2018-03-02T11:53:58.264Z,98345.25
2018-03-02T11:56:24.205Z,98348.70
2018-03-02T11:58:50.185Z,98340.99
2018-03-02T12:01:16.115Z,98342.61
2018-03-02T12:03:42.058Z,98330.89
2018-03-02T12:06:07.976Z,98329.59
2018-03-02T12:08:33.911Z,98321.35
2018-03-02T12:10:59.885Z,98326.97
2018-03-02T12:13:25.887Z,98330.63
2018-03-02T12:15:51.883Z,98322.13
2018-03-02T12:18:17.847Z,98319.80
2018-03-02T12:20:43.835Z,98311.55
2018-03-02T12:23:09.811Z,98326.09
2018-03-02T12:25:35.734Z,98329.00
2018-03-02T12:28:01.655Z,98315.66
2018-03-02T12:30:27.591Z,98315.09
2018-03-02T12:32:53.586Z,98309.22
2018-03-02T12:35:19.537Z,98313.78
2018-03-02T12:37:45.495Z,98317.00
2018-03-02T12:40:11.443Z,98308.68
2018-03-02T12:42:37.405Z,98316.79
2018-03-02T12:45:03.347Z,98306.77
2018-03-02T12:47:29.319Z,98313.00
2018-03-02T12:49:55.263Z,98302.86
2018-03-02T12:52:21.203Z,98300.16
2018-03-02T12:54:47.173Z,98304.59
2018-03-02T12:57:13.111Z,98295.31
2018-03-02T12:59:39.045Z,98291.95
2018-03-02T13:02:04.983Z,98300.44
2018-03-02T13:04:30.927Z,98296.30
2018-03-02T13:06:56.855Z,98297.62
2018-03-02T13:09:22.787Z,98295.38
2018-03-02T13:11:48.739Z,98289.84
2018-03-02T13:14:14.720Z,98293.70
2018-03-02T13:16:40.716Z,98297.75
2018-03-02T13:19:06.679Z,98296.52
2018-03-02T13:21:32.627Z,98297.93
2018-03-02T13:23:58.646Z,98301.44
2018-03-02T13:26:24.607Z,98293.66
2018-03-02T13:28:50.553Z,98292.52
2018-03-02T13:31:16.584Z,98287.81
2018-03-02T13:33:42.543Z,98281.67
2018-03-02T13:36:08.487Z,98280.30
2018-03-02T13:38:34.447Z,98282.25
2018-03-02T13:41:00.389Z,98281.58
2018-03-02T13:43:26.330Z,98274.43
2018-03-02T13:45:52.259Z,98268.08
2018-03-02T13:48:18.239Z,98271.30
2018-03-02T13:50:44.175Z,98277.24
2018-03-02T13:53:10.119Z,98276.14
2018-03-02T13:55:36.078Z,98278.80
2018-03-02T13:58:02.039Z,98279.36
2018-03-02T14:00:27.991Z,98280.63
2018-03-02T14:02:53.959Z,98276.56
2018-03-02T14:05:19.928Z,98284.77
2018-03-02T14:07:45.893Z,98284.91
2018-03-02T14:10:11.824Z,98274.12
2018-03-02T14:12:37.792Z,98286.06
2018-03-02T14:15:03.759Z,98292.28
2018-03-02T14:17:29.732Z,98281.70
2018-03-02T14:19:55.689Z,98276.60
2018-03-02T14:22:21.645Z,98278.61
2018-03-02T14:24:47.589Z,98279.92
2018-03-02T14:27:13.544Z,98279.63
2018-03-02T14:29:39.470Z,98282.93
2018-03-02T14:32:05.431Z,98281.11
2018-03-02T14:34:31.378Z,98264.30
2018-03-02T14:36:57.348Z,98272.77
2018-03-02T14:39:23.290Z,98281.15
2018-03-02T14:41:49.282Z,98279.08
2018-03-02T14:44:15.260Z,98280.06
2018-03-02T14:46:41.208Z,98284.63
2018-03-02T14:49:07.144Z,98281.67
2018-03-02T14:51:33.077Z,98278.40
2018-03-02T14:53:59.028Z,98280.56
2018-03-02T14:56:25.014Z,98279.42
2018-03-02T14:58:50.963Z,98273.95
2018-03-02T15:01:16.892Z,98277.31
2018-03-02T15:03:42.822Z,98242.22
2018-03-02T15:06:08.779Z,98285.59
2018-03-02T15:08:34.708Z,98279.25
2018-03-02T15:11:00.646Z,98278.30
2018-03-02T15:13:26.598Z,98276.67
2018-03-02T15:15:52.566Z,98282.52
2018-03-02T15:18:18.528Z,98285.16
2018-03-02T15:20:44.478Z,98275.61
2018-03-02T15:23:10.422Z,98275.58
2018-03-02T15:25:37.738Z,98281.31
2018-03-02T15:28:03.698Z,98278.72
2018-03-02T15:30:29.648Z,98277.80
2018-03-02T15:32:55.632Z,98282.58
2018-03-02T15:35:21.565Z,98272.83
2018-03-02T15:37:47.509Z,98285.91
2018-03-02T15:40:13.537Z,98282.50
2018-03-02T15:42:40.601Z,98282.96
2018-03-02T15:45:06.537Z,98281.27
2018-03-02T15:47:32.474Z,98280.53
2018-03-02T15:49:58.442Z,98286.57
2018-03-02T15:52:24.403Z,98285.26
2018-03-02T15:54:50.394Z,98284.12
2018-03-02T15:57:16.351Z,98301.91
2018-03-02T15:59:42.407Z,98298.42
2018-03-02T16:02:08.373Z,98294.71
2018-03-02T16:04:34.328Z,98301.87
2018-03-02T16:07:00.262Z,98302.86
2018-03-02T16:09:26.237Z,98306.03
2018-03-02T16:11:52.195Z,98314.52
2018-03-02T16:14:18.203Z,98314.98
2018-03-02T16:16:44.115Z,98332.23
2018-03-02T16:19:10.067Z,98342.03
2018-03-02T16:21:36.044Z,98346.34
2018-03-02T16:24:02.023Z,98343.34
2018-03-02T16:26:27.980Z,98339.58
2018-03-02T16:28:53.935Z,98358.21
2018-03-02T16:31:19.912Z,98356.75
2018-03-02T16:33:45.872Z,98350.29
2018-03-02T16:36:11.851Z,98355.35
2018-03-02T16:38:37.854Z,98354.72
2018-03-02T16:41:03.779Z,98355.82
2018-03-02T16:43:29.707Z,98367.59
2018-03-02T16:45:55.646Z,98359.25
2018-03-02T16:48:21.583Z,98364.78
2018-03-02T16:50:47.546Z,98377.70
2018-03-02T16:53:13.511Z,98375.36
2018-03-02T16:55:39.559Z,98381.75
2018-03-02T16:58:05.516Z,98384.61
2018-03-02T17:00:31.487Z,98388.75
2018-03-02T17:02:57.498Z,98380.44
2018-03-02T17:05:23.464Z,98392.20
2018-03-02T17:07:49.397Z,98391.34
2018-03-02T17:10:15.343Z,98405.97
2018-03-02T17:12:41.308Z,98406.16
2018-03-02T17:15:07.264Z,98409.24
2018-03-02T17:17:33.213Z,98415.36
2018-03-02T17:19:59.155Z,98413.58
2018-03-02T17:22:25.125Z,98413.21
2018-03-02T17:24:51.070Z,98416.64
2018-03-02T17:27:17.014Z,98425.38
2018-03-02T17:29:42.937Z,98435.03
2018-03-02T17:32:08.900Z,98439.99
2018-03-02T17:34:34.911Z,98448.02
2018-03-02T17:37:00.801Z,98457.15
2018-03-02T17:39:26.775Z,98443.23
2018-03-02T17:41:52.712Z,98449.42
2018-03-02T17:44:18.655Z,98436.58
2018-03-02T17:46:44.645Z,98437.21
2018-03-02T17:49:10.628Z,98451.49
2018-03-02T17:51:36.548Z,98451.09
2018-03-02T17:54:02.517Z,98451.71
2018-03-02T17:56:28.477Z,98457.00
2018-03-02T17:58:54.436Z,98463.78
2018-03-02T18:01:20.432Z,98459.62
2018-03-02T18:03:46.373Z,98465.62
2018-03-02T18:06:12.358Z,98463.55
2018-03-02T18:08:40.392Z,98469.55
2018-03-02T18:11:06.386Z,98464.19
2018-03-02T18:13:32.286Z,98465.61
2018-03-02T18:15:58.270Z,98471.37
2018-03-02T18:18:24.254Z,98478.25
2018-03-02T18:20:50.216Z,98491.38
2018-03-02T18:23:16.158Z,98486.63
2018-03-02T18:25:42.136Z,98486.95
2018-03-02T18:28:08.070Z,98495.70
2018-03-02T18:30:35.092Z,98496.55
2018-03-02T18:33:01.062Z,98508.77
2018-03-02T18:35:27.034Z,98499.45
2018-03-02T18:37:52.990Z,98495.56
2018-03-02T18:40:19.110Z,98501.21
2018-03-02T18:42:45.128Z,98505.33
2018-03-02T18:45:11.132Z,98504.64
2018-03-02T18:47:37.064Z,98507.87
2018-03-02T18:50:02.995Z,98514.12
2018-03-02T18:52:28.952Z,98517.19
2018-03-02T18:54:54.928Z,98513.70
2018-03-02T18:57:20.884Z,98515.48
2018-03-02T18:59:46.838Z,98513.94
2018-03-02T19:02:12.816Z,98515.79
2018-03-02T19:04:38.799Z,98520.64
2018-03-02T19:07:04.738Z,98520.42
2018-03-02T19:09:30.703Z,98528.12
2018-03-02T19:11:56.651Z,98525.50
2018-03-02T19:14:22.604Z,98518.78
2018-03-02T19:16:48.559Z,98508.81
2018-03-02T19:19:14.517Z,98515.55
2018-03-02T19:21:40.481Z,98526.62
2018-03-02T19:24:06.450Z,98525.97
2018-03-02T19:26:32.387Z,98535.36
2018-03-02T19:28:58.374Z,98524.45
2018-03-02T19:31:24.381Z,98521.21
2018-03-02T19:33:50.316Z,98521.98
2018-03-02T19:36:16.380Z,98526.83
2018-03-02T19:38:42.342Z,98530.52
2018-03-02T19:41:08.287Z,98531.86
2018-03-02T19:43:34.239Z,98535.05
2018-03-02T19:46:01.233Z,98539.72
2018-03-02T19:48:27.184Z,98544.94
2018-03-02T19:50:53.144Z,98541.31
2018-03-02T19:53:19.102Z,98544.84
2018-03-02T19:55:45.101Z,98550.02
2018-03-02T19:58:11.093Z,98539.80
2018-03-02T20:00:37.045Z,98539.61
2018-03-02T20:03:03.027Z,98543.50
2018-03-02T20:05:29.023Z,98537.85
2018-03-02T20:07:54.980Z,98531.30
2018-03-02T20:10:20.951Z,98538.82
2018-03-02T20:12:47.791Z,98544.63
2018-03-02T20:15:13.747Z,98542.19
2018-03-02T20:17:39.691Z,98539.80
2018-03-02T20:20:05.628Z,98542.98
2018-03-02T20:22:31.583Z,98544.27
2018-03-02T20:24:57.548Z,98550.16
2018-03-02T20:27:23.506Z,98548.40
2018-03-02T20:29:49.558Z,98549.08
2018-03-02T20:32:15.516Z,98547.25
2018-03-02T20:34:41.462Z,98552.89
2018-03-02T20:37:07.447Z,98564.08
2018-03-02T20:39:33.387Z,98556.23
2018-03-02T20:41:59.332Z,98559.49
2018-03-02T20:44:25.299Z,98569.94
2018-03-02T20:46:51.244Z,98563.30
2018-03-02T20:49:17.177Z,98569.64
2018-03-02T20:51:43.129Z,98565.61
2018-03-02T20:54:09.098Z,98562.20
2018-03-02T20:56:35.091Z,98570.08
2018-03-02T20:59:01.024Z,98564.83
2018-03-02T21:01:26.977Z,98570.93
2018-03-02T21:03:52.915Z,98560.37
2018-03-02T21:06:18.876Z,98571.13
2018-03-02T21:08:44.817Z,98566.68
2018-03-02T21:11:10.779Z,98565.81
2018-03-02T21:13:36.807Z,98558.72
2018-03-02T21:16:02.768Z,98557.53
2018-03-02T21:18:28.785Z,98565.31
2018-03-02T21:20:54.727Z,98575.44
2018-03-02T21:23:20.713Z,98568.25
2018-03-02T21:25:46.660Z,98564.77
2018-03-02T21:28:12.709Z,98558.27
2018-03-02T21:30:38.664Z,98558.48
2018-03-02T21:33:04.731Z,98555.09
2018-03-02T21:35:30.707Z,98556.81
2018-03-02T21:37:56.651Z,98558.51
2018-03-02T21:40:22.608Z,98559.33
2018-03-02T21:42:48.551Z,98560.26
2018-03-02T21:45:14.586Z,98558.86
2018-03-02T21:47:40.528Z,98553.37
2018-03-02T21:50:06.842Z,98557.52
2018-03-02T21:52:32.770Z,98557.35
2018-03-02T21:54:58.700Z,98550.28
2018-03-02T21:57:24.759Z,98546.69
2018-03-02T21:59:50.688Z,98547.05
2018-03-02T22:02:16.646Z,98551.81
2018-03-02T22:04:42.578Z,98544.85
2018-03-02T22:07:08.512Z,98544.34
2018-03-02T22:09:34.451Z,98551.83
2018-03-02T22:12:00.383Z,98546.61
2018-03-02T22:14:26.438Z,98546.02
2018-03-02T22:16:52.451Z,98543.77
2018-03-02T22:19:18.482Z,98542.38
2018-03-02T22:21:44.414Z,98540.69
2018-03-02T22:24:10.364Z,98540.89
2018-03-02T22:26:36.306Z,98544.03
2018-03-02T22:29:02.256Z,98537.35
2018-03-02T22:31:28.203Z,98537.13
2018-03-02T22:33:54.398Z,98540.80
2018-03-02T22:36:20.326Z,98530.47
2018-03-02T22:38:46.261Z,98519.47
2018-03-02T22:41:12.198Z,98521.41
2018-03-02T22:43:38.151Z,98527.92
2018-03-02T22:46:04.084Z,98527.38
2018-03-02T22:48:30.186Z,98524.41
2018-03-02T22:50:56.118Z,98526.83
2018-03-02T22:53:22.073Z,98519.84
2018-03-02T22:55:48.001Z,98524.84
2018-03-02T22:58:13.938Z,98522.77
2018-03-02T23:00:39.859Z,98527.27
2018-03-02T23:03:05.876Z,98523.84
2018-03-02T23:05:31.820Z,98519.44
2018-03-02T23:07:57.770Z,98527.38
2018-03-02T23:10:23.695Z,98514.98
2018-03-02T23:12:49.672Z,98514.19
2018-03-02T23:15:15.634Z,98504.34
2018-03-02T23:17:41.568Z,98515.68
2018-03-02T23:20:07.504Z,98512.89
2018-03-02T23:22:33.455Z,98513.91
2018-03-02T23:24:59.376Z,98516.37
2018-03-02T23:27:25.312Z,98515.59
2018-03-02T23:29:51.237Z,98517.63
2018-03-02T23:32:17.149Z,98517.78
2018-03-02T23:34:43.124Z,98517.68
2018-03-02T23:37:09.082Z,98521.80
2018-03-02T23:39:35.020Z,98526.67
2018-03-02T23:42:01.087Z,98526.91
2018-03-02T23:44:27.023Z,98527.47
2018-03-02T23:46:52.941Z,98526.12
2018-03-02T23:49:18.866Z,98539.60
2018-03-02T23:51:44.785Z,98538.28
2018-03-02T23:54:10.711Z,98537.48
2018-03-02T23:56:36.631Z,98541.09
2018-03-02T23:59:02.567Z,98548.66
